Time;durP1;ratioP1;P1;durP2;ratioP2;P2;SDS_P1;SDS_P2;PMS_P1;PMS_P2;Temp;Humidity;BMP_temperature;BMP_pressure;BME280_temperature;BME280_humidity;BME280_pressure;Samples;Min_cycle;Max_cycle;Signal;HPM_P1;HPM_P2
2022/05/15 00:01:26;;;;;;;7.22;3.10;;;24.50;40.00;;;;;;5136609;27;20059;-38
2022/05/15 00:03:52;;;;;;;5.55;2.63;;;24.50;40.00;;;;;;5135506;27;20483;-39
2022/05/15 00:06:18;;;;;;;6.15;2.63;;;24.50;40.00;;;;;;5135716;27;20047;-38
2022/05/15 00:08:44;;;;;;;6.80;2.80;;;24.50;40.10;;;;;;5134948;27;20359;-39
2022/05/15 00:11:12;;;;;;;7.55;2.90;;;24.50;40.10;;;;;;5135157;27;20064;-38
2022/05/15 00:13:39;;;;;;;7.85;3.10;;;24.50;40.10;;;;;;5135073;27;20020;-38
2022/05/15 00:16:05;;;;;;;6.38;2.60;;;24.50;40.10;;;;;;5133347;27;20022;-37
2022/05/15 00:18:32;;;;;;;6.43;2.78;;;24.50;40.10;;;;;;5133523;27;20043;-38
2022/05/15 00:20:59;;;;;;;7.10;3.00;;;24.50;40.10;;;;;;5134328;27;20494;-38
2022/05/15 00:23:25;;;;;;;5.40;2.75;;;24.50;40.10;;;;;;5134646;27;20026;-39
2022/05/15 00:25:51;;;;;;;5.63;2.63;;;24.50;40.10;;;;;;5133883;27;20015;-40
2022/05/15 00:28:17;;;;;;;6.18;2.78;;;24.50;40.10;;;;;;5134641;27;20057;-40
2022/05/15 00:30:44;;;;;;;6.07;2.92;;;24.50;40.60;;;;;;5136246;27;20022;-41
2022/05/15 00:33:10;;;;;;;6.10;3.00;;;24.50;40.10;;;;;;5135807;27;20022;-41
2022/05/15 00:35:37;;;;;;;6.28;3.30;;;24.50;40.00;;;;;;5136190;27;20035;-39
2022/05/15 00:38:07;;;;;;;6.03;3.00;;;24.50;40.00;;;;;;5135151;28;20008;-39
2022/05/15 00:40:34;;;;;;;6.15;3.05;;;24.50;40.10;;;;;;5136637;27;20024;-41
2022/05/15 00:43:00;;;;;;;6.78;2.80;;;24.50;40.00;;;;;;5134660;28;20015;-39
2022/05/15 00:45:26;;;;;;;6.22;3.00;;;24.50;40.00;;;;;;5136058;27;20019;-40
2022/05/15 00:47:52;;;;;;;5.35;2.70;;;24.50;40.10;;;;;;5137643;28;20030;-41
2022/05/15 00:50:24;;;;;;;6.57;2.75;;;24.50;40.10;;;;;;5137921;28;20511;-40
2022/05/15 00:52:52;;;;;;;6.60;2.72;;;24.40;40.00;;;;;;5136480;28;20090;-40
2022/05/15 00:55:25;;;;;;;7.10;2.92;;;24.50;40.00;;;;;;5138382;27;20042;-40
2022/05/15 00:58:00;;;;;;;7.18;2.80;;;24.40;40.00;;;;;;5137538;27;20008;-39
2022/05/15 01:00:28;;;;;;;7.30;2.92;;;24.40;40.00;;;;;;5116978;28;20486;-40
2022/05/15 01:03:03;;;;;;;7.28;3.10;;;24.40;40.00;;;;;;5137740;27;20011;-39
2022/05/15 01:05:31;;;;;;;5.95;2.95;;;24.40;40.10;;;;;;5137554;27;20027;-38
2022/05/15 01:07:58;;;;;;;7.28;3.35;;;24.40;40.10;;;;;;5139063;27;20019;-38
2022/05/15 01:10:24;;;;;;;6.97;3.20;;;24.40;40.10;;;;;;5137395;27;20015;-40
2022/05/15 01:12:51;;;;;;;8.02;3.17;;;24.40;40.00;;;;;;5137693;27;20063;-38
2022/05/15 01:15:20;;;;;;;5.10;2.78;;;24.40;40.00;;;;;;5137717;27;20481;-38
2022/05/15 01:17:46;;;;;;;8.95;3.38;;;24.40;40.00;;;;;;5136974;27;20038;-38
2022/05/15 01:20:13;;;;;;;7.15;3.03;;;24.40;40.00;;;;;;5138613;27;20465;-38
2022/05/15 01:22:39;;;;;;;8.20;3.10;;;24.40;40.00;;;;;;5138165;27;20050;-37
2022/05/15 01:25:17;;;;;;;7.60;2.90;;;24.40;40.00;;;;;;5138264;27;20026;-38
2022/05/15 01:27:52;;;;;;;5.68;3.00;;;24.40;40.00;;;;;;5137626;27;20011;-39
2022/05/15 01:30:19;;;;;;;6.32;2.97;;;24.40;40.00;;;;;;5138572;27;20089;-38
2022/05/15 01:32:45;;;;;;;8.25;3.13;;;24.40;40.60;;;;;;5138366;27;20011;-38
2022/05/15 01:35:11;;;;;;;8.05;2.88;;;24.40;40.00;;;;;;5138125;27;20015;-38
2022/05/15 01:37:39;;;;;;;6.55;2.80;;;24.40;40.00;;;;;;5138258;27;20016;-39
2022/05/15 01:40:06;;;;;;;6.55;2.92;;;24.30;40.00;;;;;;5137673;27;20023;-39
2022/05/15 01:42:32;;;;;;;7.10;3.38;;;24.40;40.10;;;;;;5138078;27;20063;-38
2022/05/15 01:44:58;;;;;;;6.25;2.90;;;24.30;40.00;;;;;;5138679;27;20128;-38
2022/05/15 01:47:25;;;;;;;7.88;3.10;;;24.30;40.00;;;;;;5137576;27;20007;-39
2022/05/15 01:49:51;;;;;;;6.97;3.10;;;24.40;40.00;;;;;;5136417;27;20465;-39
2022/05/15 01:52:20;;;;;;;6.30;2.95;;;24.30;40.00;;;;;;5137408;27;20015;-39
2022/05/15 01:54:47;;;;;;;12.80;3.75;;;24.30;40.00;;;;;;5137224;27;20030;-39
2022/05/15 01:57:13;;;;;;;6.63;2.95;;;24.30;40.00;;;;;;5136891;27;20399;-39
2022/05/15 01:59:39;;;;;;;8.63;3.20;;;24.30;40.00;;;;;;5137836;27;20026;-39
2022/05/15 02:02:06;;;;;;;7.75;3.00;;;24.30;39.90;;;;;;5138960;27;20478;-41
2022/05/15 02:04:31;;;;;;;6.22;2.97;;;24.30;39.90;;;;;;5140314;27;20465;-38
2022/05/15 02:06:58;;;;;;;6.50;2.80;;;24.30;40.00;;;;;;5140552;27;20015;-39
2022/05/15 02:09:23;;;;;;;8.50;3.20;;;24.20;39.90;;;;;;5141397;27;20015;-40
2022/05/15 02:11:49;;;;;;;7.85;3.30;;;24.30;39.90;;;;;;5140138;27;20032;-42
2022/05/15 02:14:16;;;;;;;7.20;3.10;;;24.20;39.90;;;;;;5119535;27;20015;-40
2022/05/15 02:16:42;;;;;;;6.57;3.00;;;24.30;40.00;;;;;;5139220;27;20064;-39
2022/05/15 02:19:09;;;;;;;8.27;3.30;;;24.20;39.90;;;;;;5140054;27;20012;-40
2022/05/15 02:21:35;;;;;;;7.10;3.08;;;24.30;39.90;;;;;;5140297;27;20047;-41
2022/05/15 02:24:01;;;;;;;8.73;3.33;;;24.20;39.80;;;;;;5140315;27;20530;-40
2022/05/15 02:26:29;;;;;;;8.40;3.00;;;24.30;39.90;;;;;;5138889;27;20019;-39
2022/05/15 02:28:54;;;;;;;8.27;3.53;;;24.20;39.90;;;;;;5138283;27;20086;-40
2022/05/15 02:31:20;;;;;;;6.53;3.33;;;24.20;39.90;;;;;;5138063;27;20058;-40
2022/05/15 02:33:47;;;;;;;5.85;2.95;;;24.20;39.90;;;;;;5139061;27;20020;-39
2022/05/15 02:36:13;;;;;;;8.65;3.50;;;24.20;39.90;;;;;;5138390;27;20016;-40
2022/05/15 02:38:39;;;;;;;8.18;3.15;;;24.20;39.90;;;;;;5138309;27;20022;-42
2022/05/15 02:41:05;;;;;;;5.07;2.70;;;24.20;39.80;;;;;;5138189;27;20044;-39
2022/05/15 02:43:31;;;;;;;5.57;2.70;;;24.20;40.00;;;;;;5135687;27;20105;-39
2022/05/15 02:45:57;;;;;;;7.10;3.15;;;24.10;39.80;;;;;;5137339;27;20112;-40
2022/05/15 02:51:08;;;;;;;6.20;2.90;;;24.20;39.80;;;;;;5137809;27;20042;-40
2022/05/15 02:53:39;;;;;;;6.20;3.00;;;24.20;39.80;;;;;;5137670;27;20079;-40
2022/05/15 02:56:28;;;;;;;6.82;2.95;;;24.20;39.80;;;;;;5136589;27;20008;-39
2022/05/15 02:58:54;;;;;;;6.75;2.90;;;24.10;39.80;;;;;;5135362;27;20461;-39
2022/05/15 03:01:20;;;;;;;7.15;3.22;;;24.20;39.80;;;;;;5136628;27;20030;-38
2022/05/15 03:03:47;;;;;;;7.18;3.13;;;24.20;39.80;;;;;;5136003;27;20381;-41
2022/05/15 03:06:13;;;;;;;9.23;3.25;;;24.10;39.70;;;;;;5136541;27;20019;-39
2022/05/15 03:08:41;;;;;;;10.35;3.58;;;24.10;39.80;;;;;;5134514;27;20069;-39
2022/05/15 03:11:07;;;;;;;8.25;3.22;;;24.10;39.80;;;;;;5135847;27;20012;-40
2022/05/15 03:13:32;;;;;;;8.40;3.10;;;24.10;39.80;;;;;;5135481;27;20024;-39
2022/05/15 03:15:59;;;;;;;5.32;2.92;;;24.10;39.80;;;;;;5135787;27;20019;-40
2022/05/15 03:18:25;;;;;;;7.43;3.17;;;24.10;39.70;;;;;;5134765;27;20064;-39
2022/05/15 03:20:52;;;;;;;7.78;3.20;;;24.10;39.70;;;;;;5135583;27;20031;-40
2022/05/15 03:23:19;;;;;;;6.82;2.83;;;24.10;39.80;;;;;;5135365;27;20537;-41
2022/05/15 03:25:44;;;;;;;8.85;3.35;;;24.10;39.80;;;;;;5134631;27;20019;-39
2022/05/15 03:28:12;;;;;;;7.85;2.80;;;24.10;39.80;;;;;;5135751;27;20030;-39
2022/05/15 03:30:42;;;;;;;6.20;3.00;;;24.10;39.70;;;;;;5135006;27;20521;-40
2022/05/15 03:33:09;;;;;;;6.97;3.20;;;24.10;39.80;;;;;;5135379;27;20019;-39
2022/05/15 03:35:36;;;;;;;7.93;3.38;;;24.10;39.70;;;;;;5135170;27;20015;-38
2022/05/15 03:38:01;;;;;;;8.90;3.40;;;24.10;39.70;;;;;;5136246;27;20053;-40
2022/05/15 03:40:28;;;;;;;7.07;3.20;;;24.10;39.70;;;;;;5136414;27;20015;-38
2022/05/15 03:42:53;;;;;;;6.80;3.05;;;24.10;39.70;;;;;;5135624;27;20027;-38
2022/05/15 03:45:19;;;;;;;9.10;3.40;;;24.10;39.70;;;;;;5136651;27;20023;-41
2022/05/15 03:47:50;;;;;;;8.25;3.35;;;24.10;39.70;;;;;;5136580;27;20020;-38
2022/05/15 03:50:16;;;;;;;7.28;3.28;;;24.10;39.80;;;;;;5136941;27;20007;-40
2022/05/15 03:52:42;;;;;;;7.75;3.28;;;24.00;39.70;;;;;;5136580;27;20031;-39
2022/05/15 03:55:09;;;;;;;7.10;3.00;;;24.00;39.70;;;;;;5137247;27;20423;-38
2022/05/15 03:57:35;;;;;;;6.03;3.10;;;24.00;39.70;;;;;;5137315;27;20023;-38
2022/05/15 04:00:02;;;;;;;8.13;3.10;;;24.00;39.80;;;;;;5137574;27;20049;-38
2022/05/15 04:02:29;;;;;;;8.32;3.08;;;24.00;39.80;;;;;;5137116;27;20015;-38
2022/05/15 04:04:56;;;;;;;7.97;3.20;;;24.10;39.80;;;;;;5135813;27;20015;-38
2022/05/15 04:07:21;;;;;;;5.70;3.00;;;24.10;39.80;;;;;;5135492;27;20091;-38
2022/05/15 04:09:48;;;;;;;8.27;3.13;;;24.00;39.70;;;;;;5135390;27;20481;-38
2022/05/15 04:12:14;;;;;;;11.93;3.30;;;24.00;39.70;;;;;;5135200;27;20031;-39
2022/05/15 04:14:40;;;;;;;8.23;3.42;;;24.00;39.70;;;;;;5137212;27;20487;-38
2022/05/15 04:17:05;;;;;;;6.68;2.90;;;24.00;40.20;;;;;;5136536;27;20492;-38
2022/05/15 04:19:34;;;;;;;6.13;2.97;;;24.10;39.70;;;;;;5136123;27;20012;-38
2022/05/15 04:22:03;;;;;;;6.70;2.83;;;24.10;39.60;;;;;;5136858;27;20054;-39
2022/05/15 04:24:29;;;;;;;9.93;3.97;;;24.10;39.40;;;;;;5135491;27;20466;-39
2022/05/15 04:26:56;;;;;;;9.00;3.53;;;24.10;39.30;;;;;;5136295;27;20083;-38
2022/05/15 04:29:24;;;;;;;11.25;3.83;;;24.20;39.30;;;;;;5135750;27;20036;-38
2022/05/15 04:31:55;;;;;;;7.50;3.08;;;24.30;39.10;;;;;;5135015;27;20023;-39
2022/05/15 04:34:22;;;;;;;7.47;3.47;;;24.40;38.90;;;;;;5136102;27;20013;-40
2022/05/15 04:36:48;;;;;;;8.65;3.30;;;24.40;38.90;;;;;;5140046;27;20007;-38
2022/05/15 04:39:14;;;;;;;8.52;3.50;;;24.40;38.70;;;;;;5144988;27;20113;-39
2022/05/15 04:41:40;;;;;;;9.02;3.17;;;24.40;38.70;;;;;;5143668;27;20064;-39
2022/05/15 04:44:07;;;;;;;8.43;3.10;;;24.50;38.70;;;;;;5144376;27;20068;-40
2022/05/15 04:46:33;;;;;;;6.85;2.95;;;24.50;38.50;;;;;;5147845;27;20019;-40
2022/05/15 04:48:59;;;;;;;7.90;3.05;;;24.60;38.50;;;;;;5146220;27;20086;-40
2022/05/15 04:51:25;;;;;;;6.88;3.08;;;24.60;38.30;;;;;;5144313;27;20068;-39
2022/05/15 04:53:51;;;;;;;9.27;3.45;;;24.70;38.10;;;;;;5143678;27;20102;-39
2022/05/15 04:56:17;;;;;;;8.60;3.63;;;24.80;37.90;;;;;;5143221;27;20030;-38
2022/05/15 04:58:43;;;;;;;7.85;2.97;;;25.00;37.70;;;;;;5142649;27;20060;-39
2022/05/15 05:01:10;;;;;;;8.30;3.13;;;25.10;37.50;;;;;;5141977;27;20019;-39
2022/05/15 05:03:37;;;;;;;7.60;3.05;;;25.20;37.40;;;;;;5143579;27;20011;-39
2022/05/15 05:06:02;;;;;;;8.35;3.20;;;25.20;37.10;;;;;;5144942;27;20038;-40
2022/05/15 05:08:29;;;;;;;6.70;3.05;;;25.20;37.00;;;;;;5147282;27;20022;-40
2022/05/15 05:10:56;;;;;;;8.18;3.03;;;25.30;36.80;;;;;;5147271;27;20012;-39
2022/05/15 05:13:22;;;;;;;9.73;3.83;;;25.30;36.70;;;;;;5145429;27;20038;-40
2022/05/15 05:15:49;;;;;;;6.95;3.33;;;25.40;36.70;;;;;;5145461;27;20503;-39
2022/05/15 05:18:15;;;;;;;8.63;3.13;;;25.40;36.70;;;;;;5144137;27;20465;-39
2022/05/15 05:20:43;;;;;;;6.43;3.13;;;25.40;36.60;;;;;;5142658;27;20035;-40
2022/05/15 05:23:09;;;;;;;6.60;2.88;;;25.40;36.50;;;;;;5143716;27;20042;-40
2022/05/15 05:25:35;;;;;;;8.52;3.10;;;25.50;36.50;;;;;;5143501;27;20015;-39
2022/05/15 05:28:01;;;;;;;6.80;2.90;;;25.40;36.50;;;;;;5142623;27;20033;-40
2022/05/15 05:30:28;;;;;;;7.75;3.20;;;25.60;36.40;;;;;;5141377;27;20470;-39
2022/05/15 05:32:54;;;;;;;9.02;3.65;;;25.60;36.30;;;;;;5140270;27;20422;-38
2022/05/15 05:35:21;;;;;;;7.18;3.22;;;25.60;36.20;;;;;;5141827;27;20019;-39
2022/05/15 05:37:47;;;;;;;8.30;3.00;;;25.70;36.10;;;;;;5142438;27;20011;-39
2022/05/15 05:40:13;;;;;;;7.68;3.47;;;25.80;36.00;;;;;;5142616;27;20008;-43
2022/05/15 05:42:39;;;;;;;5.80;2.80;;;25.90;35.80;;;;;;5139674;27;20072;-39
2022/05/15 05:45:06;;;;;;;6.28;2.92;;;26.00;35.70;;;;;;5141254;27;20015;-41
2022/05/15 05:47:32;;;;;;;6.25;3.10;;;26.10;35.60;;;;;;5140537;27;20014;-40
2022/05/15 05:49:59;;;;;;;6.40;2.90;;;26.10;35.50;;;;;;5135243;27;20045;-40
2022/05/15 05:52:25;;;;;;;7.25;3.08;;;26.20;35.40;;;;;;5137659;27;20489;-39
2022/05/15 05:54:51;;;;;;;6.85;2.80;;;26.20;35.20;;;;;;5137476;27;20020;-39
2022/05/15 05:57:17;;;;;;;6.30;2.67;;;26.30;35.10;;;;;;5138002;27;20012;-40
2022/05/15 05:59:44;;;;;;;7.28;3.00;;;26.30;34.90;;;;;;5138069;27;20011;-39
2022/05/15 06:02:10;;;;;;;7.63;3.40;;;26.50;35.00;;;;;;5137163;27;20380;-39
2022/05/15 06:04:44;;;;;;;9.30;3.38;;;26.50;34.70;;;;;;5137248;27;20010;-39
2022/05/15 06:07:12;;;;;;;7.25;3.20;;;26.60;34.60;;;;;;5137824;27;20038;-41
2022/05/15 06:09:38;;;;;;;7.32;2.95;;;26.70;34.50;;;;;;5137662;27;20060;-39
2022/05/15 06:12:05;;;;;;;6.13;3.10;;;26.80;34.40;;;;;;5137363;27;20031;-39
2022/05/15 06:14:31;;;;;;;7.57;3.00;;;26.90;34.20;;;;;;5138632;27;20019;-39
2022/05/15 06:16:57;;;;;;;6.28;2.85;;;27.00;34.20;;;;;;5139569;27;20030;-38
2022/05/15 06:19:22;;;;;;;6.82;2.72;;;27.10;34.00;;;;;;5138751;27;20011;-38
2022/05/15 06:21:49;;;;;;;5.78;3.05;;;27.20;33.90;;;;;;5138189;27;20043;-38
2022/05/15 06:24:14;;;;;;;6.85;2.92;;;27.20;33.70;;;;;;5137481;27;20018;-39
2022/05/15 06:26:41;;;;;;;7.93;2.95;;;27.30;33.60;;;;;;5138152;27;20058;-38
2022/05/15 06:29:06;;;;;;;7.43;2.83;;;27.40;33.50;;;;;;5137840;27;20012;-37
2022/05/15 06:31:33;;;;;;;7.47;2.83;;;27.50;33.40;;;;;;5137311;27;20467;-38
2022/05/15 06:33:59;;;;;;;5.93;2.70;;;27.60;33.30;;;;;;5137066;27;20019;-38
2022/05/15 06:36:25;;;;;;;7.53;3.00;;;27.70;33.10;;;;;;5137635;27;20480;-38
2022/05/15 06:38:51;;;;;;;6.63;3.08;;;27.70;32.90;;;;;;5136284;27;20012;-39
2022/05/15 06:41:18;;;;;;;5.30;2.53;;;27.90;32.90;;;;;;5138083;27;20110;-38
2022/05/15 06:43:44;;;;;;;5.43;2.97;;;27.90;32.70;;;;;;5137848;27;20023;-38
2022/05/15 06:46:09;;;;;;;6.43;2.88;;;28.00;32.60;;;;;;5139859;27;20015;-39
2022/05/15 06:48:38;;;;;;;5.45;2.85;;;28.10;32.50;;;;;;5139403;27;20027;-39
2022/05/15 06:51:04;;;;;;;7.97;3.00;;;28.20;32.90;;;;;;5140074;27;20102;-38
2022/05/15 06:53:30;;;;;;;6.90;3.08;;;28.30;32.30;;;;;;5140263;27;20054;-41
2022/05/15 06:58:40;;;;;;;6.38;2.70;;;28.40;32.10;;;;;;5138516;27;20509;-41
2022/05/15 07:01:06;;;;;;;6.80;2.80;;;28.50;31.90;;;;;;5137164;27;20075;-37
2022/05/15 07:03:32;;;;;;;7.25;2.90;;;28.60;31.80;;;;;;5136266;27;20022;-35
2022/05/15 07:05:59;;;;;;;5.18;2.75;;;28.70;31.80;;;;;;5136290;27;20052;-35
2022/05/15 07:08:26;;;;;;;6.35;3.08;;;28.70;31.70;;;;;;5134561;27;20015;-35
2022/05/15 07:10:52;;;;;;;7.25;3.00;;;28.80;31.60;;;;;;5136329;27;20012;-36
2022/05/15 07:13:18;;;;;;;7.32;3.10;;;28.80;31.60;;;;;;5138517;27;20046;-39
2022/05/15 07:15:44;;;;;;;5.93;2.95;;;28.90;31.60;;;;;;5142887;27;20007;-38
2022/05/15 07:18:10;;;;;;;6.50;2.72;;;28.90;31.50;;;;;;5142430;27;20046;-36
2022/05/15 07:20:37;;;;;;;4.72;2.35;;;29.00;31.50;;;;;;5142258;27;20027;-39
2022/05/15 07:23:03;;;;;;;5.47;2.42;;;29.10;31.40;;;;;;5142108;27;20026;-41
2022/05/15 07:25:30;;;;;;;6.97;2.80;;;29.10;31.30;;;;;;5140678;27;20019;-37
2022/05/15 07:27:56;;;;;;;7.63;2.95;;;29.10;31.20;;;;;;5140079;27;20088;-39
2022/05/15 07:30:24;;;;;;;5.45;3.13;;;29.20;31.20;;;;;;5136084;27;20035;-40
2022/05/15 07:32:50;;;;;;;5.50;2.50;;;29.20;31.20;;;;;;5135844;27;20024;-39
2022/05/15 07:35:17;;;;;;;6.47;2.70;;;29.20;31.10;;;;;;5134709;27;20378;-38
2022/05/15 07:37:44;;;;;;;6.20;2.83;;;29.30;31.10;;;;;;5135832;27;20017;-39
2022/05/15 07:40:10;;;;;;;6.20;2.72;;;29.40;31.10;;;;;;5134435;27;20442;-39
2022/05/15 07:42:41;;;;;;;7.10;2.90;;;29.30;31.10;;;;;;5135944;27;20052;-41
2022/05/15 07:45:08;;;;;;;7.72;3.13;;;29.40;31.10;;;;;;5136781;27;20114;-39
2022/05/15 07:47:34;;;;;;;5.43;2.58;;;29.50;31.00;;;;;;5137356;27;20123;-40
2022/05/15 07:50:00;;;;;;;5.93;2.85;;;29.50;31.10;;;;;;5136468;27;20015;-40
2022/05/15 07:52:27;;;;;;;5.72;2.80;;;29.50;31.10;;;;;;5137052;27;20023;-40
2022/05/15 07:54:53;;;;;;;5.05;2.80;;;29.50;31.00;;;;;;5136919;27;20034;-39
2022/05/15 07:57:19;;;;;;;7.20;2.55;;;29.50;31.10;;;;;;5135571;27;20122;-40
2022/05/15 07:59:45;;;;;;;5.82;2.90;;;29.50;31.10;;;;;;5140388;27;20030;-41
2022/05/15 08:02:12;;;;;;;5.78;2.42;;;29.60;31.10;;;;;;5140001;27;20019;-43
2022/05/15 08:10:07;;;;;;;5.00;2.65;;;29.60;30.90;;;;;;5139044;27;20034;-40
2022/05/15 08:12:37;;;;;;;5.68;2.45;;;29.70;31.00;;;;;;5138938;27;20602;-41
2022/05/15 08:15:09;;;;;;;6.70;2.90;;;29.80;31.00;;;;;;5119569;28;20484;-45
2022/05/15 08:17:35;;;;;;;5.15;2.50;;;29.80;30.90;;;;;;5137948;27;20026;-43
2022/05/15 08:25:44;;;;;;;5.32;2.58;;;29.80;30.80;;;;;;5102816;27;20079;-42
2022/05/15 08:28:10;;;;;;;4.78;2.33;;;29.80;30.80;;;;;;5136796;27;20015;-40
2022/05/15 08:30:36;;;;;;;6.75;2.53;;;29.80;30.70;;;;;;5137622;27;20027;-40
2022/05/15 08:33:05;;;;;;;5.75;2.30;;;29.90;30.80;;;;;;5136561;27;20038;-39
2022/05/15 08:35:31;;;;;;;5.43;2.60;;;29.90;31.30;;;;;;5136988;27;20508;-38
2022/05/15 08:37:57;;;;;;;5.55;2.60;;;29.90;30.80;;;;;;5137953;28;20041;-38
2022/05/15 08:40:43;;;;;;;5.45;2.75;;;29.90;30.80;;;;;;5137562;27;20512;-43
2022/05/15 08:43:10;;;;;;;5.43;2.50;;;30.00;30.90;;;;;;5137409;27;20026;-40
2022/05/15 08:45:40;;;;;;;5.20;2.72;;;30.00;30.80;;;;;;5140074;27;20020;-39
2022/05/15 08:48:09;;;;;;;4.40;2.33;;;30.00;30.80;;;;;;5139437;28;20023;-38
2022/05/15 08:50:37;;;;;;;6.00;2.33;;;30.00;30.80;;;;;;5139104;27;20488;-40
2022/05/15 08:53:14;;;;;;;6.28;2.80;;;30.00;30.80;;;;;;5121214;28;20053;-40
2022/05/15 08:55:55;;;;;;;5.20;2.53;;;30.00;30.80;;;;;;5138780;28;20007;-41
2022/05/15 08:58:39;;;;;;;6.47;2.55;;;30.00;31.30;;;;;;5139365;27;20016;-41
2022/05/15 09:01:06;;;;;;;4.07;2.13;;;30.00;30.80;;;;;;5137495;28;20028;-41
2022/05/15 09:03:35;;;;;;;5.70;2.45;;;30.00;30.80;;;;;;5135302;28;20021;-45
2022/05/15 09:06:10;;;;;;;5.32;2.65;;;30.00;30.70;;;;;;5136933;28;20025;-43
2022/05/15 09:09:23;;;;;;;4.30;2.38;;;30.00;30.70;;;;;;5135395;28;20111;-39
2022/05/15 09:12:20;;;;;;;4.93;2.55;;;30.00;30.70;;;;;;5088383;27;20031;-40
2022/05/15 09:14:56;;;;;;;4.22;2.35;;;30.00;30.70;;;;;;5135581;27;20007;-39
2022/05/15 09:17:46;;;;;;;5.72;2.45;;;30.00;30.70;;;;;;5136543;27;20112;-40
2022/05/15 09:20:36;;;;;;;4.82;2.20;;;30.00;30.70;;;;;;5136475;27;20014;-41
2022/05/15 09:23:09;;;;;;;3.40;2.20;;;30.00;30.60;;;;;;5053341;28;20068;-42
2022/05/15 09:25:35;;;;;;;4.88;2.25;;;30.00;30.70;;;;;;5040891;28;20033;-44
2022/05/15 09:28:06;;;;;;;4.95;2.42;;;30.00;30.70;;;;;;5057082;28;20037;-40
2022/05/15 09:30:38;;;;;;;5.00;2.13;;;30.00;30.70;;;;;;5059050;28;20029;-40
2022/05/15 09:33:03;;;;;;;4.50;2.20;;;30.00;30.60;;;;;;5057381;28;20116;-40
2022/05/15 09:35:38;;;;;;;4.75;2.10;;;30.00;30.60;;;;;;5042122;28;20021;-42
2022/05/15 09:43:38;;;;;;;3.30;2.05;;;30.00;30.70;;;;;;5043729;28;20414;-40
2022/05/15 09:46:12;;;;;;;4.10;2.13;;;30.00;30.80;;;;;;5054928;28;20025;-39
2022/05/15 09:48:50;;;;;;;4.30;2.10;;;29.90;30.70;;;;;;5054806;28;20068;-39
2022/05/15 09:51:22;;;;;;;4.55;2.33;;;29.90;30.70;;;;;;5038290;28;20048;-39
2022/05/15 09:53:50;;;;;;;4.75;2.25;;;29.90;30.70;;;;;;5039097;28;20539;-39
2022/05/15 09:56:19;;;;;;;4.90;2.58;;;29.90;30.70;;;;;;5054294;28;20111;-39
2022/05/15 09:59:00;;;;;;;4.27;2.40;;;29.90;30.80;;;;;;5054322;28;20022;-39
2022/05/15 10:01:33;;;;;;;5.15;2.40;;;29.80;30.80;;;;;;5136888;27;20034;-42
2022/05/15 10:04:00;;;;;;;6.60;2.65;;;29.80;30.80;;;;;;5138820;27;20039;-42
2022/05/15 10:06:27;;;;;;;4.05;2.38;;;29.80;30.90;;;;;;5139069;27;20056;-40
2022/05/15 10:09:08;;;;;;;5.93;2.42;;;29.80;30.90;;;;;;5139181;27;20011;-40
2022/05/15 10:11:35;;;;;;;4.20;2.20;;;29.80;30.90;;;;;;5138594;27;20041;-39
2022/05/15 10:14:00;;;;;;;4.68;1.90;;;29.80;30.90;;;;;;5121181;27;20042;-39
2022/05/15 10:16:32;;;;;;;7.82;2.17;;;29.70;30.90;;;;;;5137921;27;20031;-39
2022/05/15 10:19:20;;;;;;;4.18;2.00;;;29.70;30.90;;;;;;5138594;27;20015;-40
2022/05/15 10:21:49;;;;;;;3.33;1.88;;;29.70;30.90;;;;;;5139515;27;20035;-41
2022/05/15 10:24:26;;;;;;;3.90;2.03;;;29.70;30.90;;;;;;5140246;27;20071;-40
2022/05/15 10:27:05;;;;;;;4.10;1.92;;;29.60;31.50;;;;;;5106747;27;20015;-40
2022/05/15 10:29:55;;;;;;;4.25;2.03;;;29.60;31.00;;;;;;5136826;27;20047;-39
2022/05/15 10:32:26;;;;;;;5.05;2.20;;;29.60;31.10;;;;;;5136310;27;20055;-39
2022/05/15 10:34:52;;;;;;;4.15;2.05;;;29.50;31.10;;;;;;5135955;27;20026;-39
2022/05/15 10:37:24;;;;;;;3.60;1.77;;;29.50;31.10;;;;;;5137132;27;20103;-39
2022/05/15 10:40:16;;;;;;;4.18;2.03;;;29.40;31.10;;;;;;5137170;27;20188;-40
2022/05/15 10:42:45;;;;;;;4.32;2.08;;;29.40;31.10;;;;;;5135296;27;20034;-45
2022/05/15 10:45:15;;;;;;;5.50;2.13;;;29.40;31.20;;;;;;5141308;27;20012;-41
2022/05/15 10:47:47;;;;;;;5.10;2.03;;;29.40;31.20;;;;;;5141272;27;20011;-43
2022/05/15 10:50:39;;;;;;;3.53;2.08;;;29.30;31.20;;;;;;5142139;27;20051;-43
2022/05/15 11:00:02;;;;;;;5.32;2.10;;;29.20;31.40;;;;;;5142637;27;20025;-42
2022/05/15 11:02:46;;;;;;;4.50;2.28;;;29.10;31.40;;;;;;5140842;27;20011;-41
2022/05/15 11:05:32;;;;;;;5.18;1.90;;;29.00;31.50;;;;;;5138871;27;20351;-41
2022/05/15 11:08:35;;;;;;;5.25;2.30;;;29.00;31.50;;;;;;5139442;27;20416;-40
2022/05/15 11:11:10;;;;;;;4.57;1.90;;;29.00;31.70;;;;;;5139124;27;20011;-40
2022/05/15 11:13:55;;;;;;;3.72;1.98;;;28.90;31.70;;;;;;5140315;27;20080;-40
2022/05/15 11:16:31;;;;;;;3.75;2.10;;;28.90;31.70;;;;;;5142740;27;20031;-43
2022/05/15 11:19:05;;;;;;;3.22;1.80;;;28.90;31.80;;;;;;5142681;27;20018;-41
2022/05/15 11:21:57;;;;;;;5.00;2.13;;;28.80;31.80;;;;;;5143452;27;20039;-42
2022/05/15 11:24:59;;;;;;;4.28;1.92;;;28.70;31.80;;;;;;5142548;27;20015;-40
2022/05/15 11:27:39;;;;;;;4.85;1.67;;;28.70;31.90;;;;;;5141931;27;20007;-44
2022/05/15 11:30:19;;;;;;;3.88;1.60;;;28.60;31.90;;;;;;5140365;27;20019;-43
2022/05/15 11:32:45;;;;;;;3.88;1.90;;;28.60;32.00;;;;;;5122052;27;20043;-40
2022/05/15 11:35:17;;;;;;;4.80;2.10;;;28.50;32.00;;;;;;5138630;27;20019;-41
2022/05/15 11:37:57;;;;;;;5.15;1.98;;;28.50;32.10;;;;;;5138808;27;20111;-40
2022/05/15 11:40:29;;;;;;;5.63;2.08;;;28.40;32.10;;;;;;5137065;27;20127;-42
2022/05/15 11:42:55;;;;;;;5.03;1.90;;;28.40;32.20;;;;;;5138589;27;20465;-40
2022/05/15 11:45:52;;;;;;;3.95;2.13;;;28.40;32.30;;;;;;5138796;27;20047;-39
2022/05/15 11:48:25;;;;;;;3.80;1.73;;;28.30;32.20;;;;;;5140526;27;20098;-44
2022/05/15 11:50:59;;;;;;;6.00;2.13;;;28.20;32.30;;;;;;5137602;27;20029;-39
2022/05/15 11:53:49;;;;;;;3.22;1.80;;;28.20;32.40;;;;;;5120210;27;20046;-41
2022/05/15 11:56:35;;;;;;;;;;;28.10;32.40;;;;;;5123876;27;20023;-41
2022/05/15 11:59:34;;;;;;;3.50;1.80;;;28.10;32.50;;;;;;5128267;27;19945;-38
2022/05/15 12:02:11;;;;;;;4.53;1.80;;;28.10;32.50;;;;;;5037717;28;20033;-39
2022/05/15 12:04:37;;;;;;;3.60;2.13;;;28.10;32.60;;;;;;5053430;28;20025;-38
2022/05/15 12:07:03;;;;;;;3.42;1.70;;;28.00;32.60;;;;;;5053400;28;20013;-38
2022/05/15 12:09:36;;;;;;;4.05;1.90;;;28.00;32.60;;;;;;5054135;28;20087;-38
2022/05/15 12:12:23;;;;;;;2.85;1.80;;;28.00;32.60;;;;;;5055466;28;20032;-39
2022/05/15 12:15:22;;;;;;;3.10;1.80;;;27.90;32.70;;;;;;5059341;28;20035;-42
2022/05/15 12:17:50;;;;;;;3.38;2.00;;;27.90;32.80;;;;;;5002323;28;20026;-43
2022/05/15 12:20:18;;;;;;;3.30;1.80;;;27.80;32.70;;;;;;5001978;28;20118;-43
2022/05/15 12:22:56;;;;;;;2.72;1.92;;;27.90;32.80;;;;;;5001857;28;20046;-39
2022/05/15 12:25:53;;;;;;;4.25;1.90;;;27.80;32.80;;;;;;5000627;28;20102;-42
2022/05/15 12:31:16;;;;;;;4.22;1.67;;;27.80;32.80;;;;;;5000196;28;20465;-40
2022/05/15 12:33:41;;;;;;;3.20;1.95;;;27.80;32.80;;;;;;5000015;28;20041;-44
2022/05/15 12:36:15;;;;;;;3.80;1.85;;;27.80;32.90;;;;;;5000739;28;20117;-43
2022/05/15 12:38:53;;;;;;;3.17;1.92;;;27.80;32.80;;;;;;5076977;28;20027;-39
2022/05/15 12:41:25;;;;;;;3.80;2.23;;;27.80;32.70;;;;;;5081332;28;20020;-40
2022/05/15 12:43:51;;;;;;;5.03;2.15;;;27.70;32.70;;;;;;5080134;28;20271;-41
2022/05/15 12:46:28;;;;;;;2.97;1.80;;;27.70;32.70;;;;;;5076517;28;20039;-42
2022/05/15 12:48:54;;;;;;;5.22;1.92;;;27.70;32.80;;;;;;5078173;28;20032;-38
2022/05/15 12:51:29;;;;;;;4.15;2.15;;;27.70;32.80;;;;;;5077677;28;20404;-43
2022/05/15 12:53:55;;;;;;;3.50;1.88;;;27.70;32.80;;;;;;5124527;28;20108;-42
2022/05/15 12:56:32;;;;;;;2.78;1.60;;;27.70;32.90;;;;;;5123465;28;20015;-38
2022/05/15 12:59:00;;;;;;;2.78;1.70;;;27.60;32.90;;;;;;5141886;27;20016;-39
2022/05/15 13:01:31;;;;;;;3.78;1.73;;;27.60;32.90;;;;;;5142389;27;20033;-43
2022/05/15 13:03:57;;;;;;;4.85;1.77;;;27.60;32.80;;;;;;5142116;27;20019;-39
2022/05/15 13:06:35;;;;;;;2.67;1.63;;;27.60;32.80;;;;;;5142700;27;20063;-42
2022/05/15 13:09:04;;;;;;;3.70;1.63;;;27.60;32.70;;;;;;5142206;27;20023;-38
2022/05/15 13:11:46;;;;;;;2.88;1.70;;;27.60;32.60;;;;;;5142529;27;20022;-39
2022/05/15 13:14:21;;;;;;;3.67;1.70;;;27.60;32.60;;;;;;5141548;27;20024;-38
2022/05/15 13:16:49;;;;;;;3.15;1.70;;;27.60;32.60;;;;;;5141077;27;20063;-40
2022/05/15 13:19:17;;;;;;;3.10;1.70;;;27.60;32.70;;;;;;5140829;27;20043;-39
2022/05/15 13:21:49;;;;;;;3.17;1.63;;;27.60;32.60;;;;;;5142184;27;20108;-40
2022/05/15 13:24:15;;;;;;;4.35;1.83;;;27.60;32.60;;;;;;5142865;27;20019;-38
2022/05/15 13:26:44;;;;;;;2.83;1.63;;;27.60;32.60;;;;;;5142913;27;20015;-38
2022/05/15 13:29:21;;;;;;;3.22;1.60;;;27.60;32.60;;;;;;5141900;27;20015;-39
2022/05/15 13:31:49;;;;;;;3.45;1.70;;;27.60;32.60;;;;;;5107781;27;20017;-38
2022/05/15 13:34:15;;;;;;;4.18;2.10;;;27.60;32.60;;;;;;5141256;27;20023;-40